Time;durP1;ratioP1;P1;durP2;ratioP2;P2;SDS_P1;SDS_P2;PMS_P1;PMS_P2;Temp;Humidity;BMP_temperature;BMP_pressure;BME280_temperature;BME280_humidity;BME280_pressure;Samples;Min_cycle;Max_cycle;Signal;HPM_P1;HPM_P2
2021/12/19 00:04:13;;;;;;;6.05;2.40;;;;;;;;;;5081273;28;20035;-82
2021/12/19 00:09:17;;;;;;;4.32;1.77;;;;;;;;;;5078961;28;20034;-82
2021/12/19 00:11:43;;;;;;;6.70;2.45;;;;;;;;;;5082788;28;20061;-82
2021/12/19 00:14:09;;;;;;;5.97;2.03;;;;;;;;;;5081783;28;20039;-82
2021/12/19 00:16:35;;;;;;;5.60;1.95;;;;;;;;;;5083994;28;20028;-82
2021/12/19 00:19:01;;;;;;;6.70;2.35;;;;;;;;;;5083904;28;20122;-82
2021/12/19 00:21:27;;;;;;;7.65;3.13;;;;;;;;;;5078947;28;20036;-82
2021/12/19 00:23:54;;;;;;;5.32;1.80;;;;;;;;;;5074741;28;20024;-82
2021/12/19 00:26:20;;;;;;;7.38;2.28;;;;;;;;;;5081703;28;20020;-81
2021/12/19 00:28:47;;;;;;;11.63;3.05;;;;;;;;;;5089332;28;20035;-82
2021/12/19 00:31:13;;;;;;;10.13;2.95;;;;;;;;;;5084620;28;20365;-82
2021/12/19 00:33:39;;;;;;;5.50;2.28;;;;;;;;;;5081205;28;20039;-81
2021/12/19 00:36:06;;;;;;;8.32;2.10;;;;;;;;;;5079819;28;20089;-82
2021/12/19 00:38:32;;;;;;;7.60;2.97;;;;;;;;;;5081148;28;20036;-82
2021/12/19 00:40:58;;;;;;;7.32;2.60;;;;;;;;;;5088862;28;20032;-83
2021/12/19 00:43:34;;;;;;;8.95;2.78;;;;;;;;;;5080707;28;20036;-82
2021/12/19 00:46:07;;;;;;;6.90;2.95;;;;;;;;;;5080539;28;20032;-82
2021/12/19 00:48:37;;;;;;;8.48;2.42;;;;;;;;;;5083630;28;20225;-82
2021/12/19 00:51:04;;;;;;;9.07;2.50;;;;;;;;;;5074341;28;20049;-82
2021/12/19 00:53:30;;;;;;;9.55;3.40;;;;;;;;;;5081534;28;20672;-82
2021/12/19 00:55:56;;;;;;;6.82;1.70;;;;;;;;;;5085836;28;20034;-80
2021/12/19 00:58:22;;;;;;;9.82;2.45;;;;;;;;;;5107791;28;20051;-79
2021/12/19 01:00:48;;;;;;;4.75;2.22;;;;;;;;;;5103093;28;20044;-80
2021/12/19 01:03:14;;;;;;;8.63;2.95;;;;;;;;;;5081213;28;20032;-81
2021/12/19 01:05:42;;;;;;;10.98;3.35;;;3.60;99.90;;;;;;5083538;28;20024;-82
2021/12/19 01:08:08;;;;;;;10.45;2.30;;;;;;;;;;5079424;28;20059;-82
2021/12/19 01:10:35;;;;;;;8.75;3.63;;;;;;;;;;5082114;28;20031;-81
2021/12/19 01:13:04;;;;;;;8.93;2.55;;;;;;;;;;5086734;28;20020;-82
2021/12/19 01:15:30;;;;;;;7.70;2.90;;;;;;;;;;5084115;28;20484;-82
2021/12/19 01:17:57;;;;;;;6.00;2.13;;;;;;;;;;5081018;28;20111;-82
2021/12/19 01:20:24;;;;;;;9.02;2.50;;;;;;;;;;5079178;28;20439;-82
2021/12/19 01:22:51;;;;;;;8.45;2.70;;;;;;;;;;5078998;28;20570;-82
2021/12/19 01:25:16;;;;;;;6.60;2.28;;;;;;;;;;5072511;28;20490;-82
2021/12/19 01:27:43;;;;;;;6.25;2.63;;;;;;;;;;5079605;28;20032;-83
2021/12/19 01:30:09;;;;;;;4.45;1.92;;;;;;;;;;5078968;28;20119;-82
2021/12/19 01:32:36;;;;;;;9.57;2.80;;;;;;;;;;5077139;28;20027;-82
2021/12/19 01:35:02;;;;;;;5.75;2.10;;;;;;;;;;5080750;28;20032;-81
2021/12/19 01:37:28;;;;;;;6.22;1.70;;;;;;;;;;5077722;28;20388;-83
2021/12/19 01:39:55;;;;;;;10.77;3.42;;;;;;;;;;5072903;28;20036;-82
2021/12/19 01:42:21;;;;;;;7.22;2.15;;;;;;;;;;5081974;28;20043;-82
2021/12/19 01:44:47;;;;;;;10.95;2.55;;;;;;;;;;5073535;28;20021;-82
2021/12/19 01:47:14;;;;;;;5.63;1.83;;;;;;;;;;5076737;28;20549;-82
2021/12/19 01:49:40;;;;;;;5.70;2.55;;;;;;;;;;5077944;28;21239;-82
2021/12/19 01:52:06;;;;;;;4.82;2.05;;;;;;;;;;5080411;28;20105;-82
2021/12/19 01:54:32;;;;;;;13.13;3.25;;;;;;;;;;5079847;28;20038;-82
2021/12/19 01:56:58;;;;;;;7.30;2.55;;;;;;;;;;5074954;28;20028;-80
2021/12/19 01:59:24;;;;;;;4.70;2.78;;;;;;;;;;5090873;28;20012;-82
2021/12/19 02:01:53;;;;;;;12.00;2.85;;;2.80;99.90;;;;;;5075877;28;20072;-82
2021/12/19 02:04:21;;;;;;;5.82;2.20;;;;;;;;;;5076156;28;20056;-82
2021/12/19 02:06:47;;;;;;;11.55;2.97;;;;;;;;;;5084142;28;20434;-82
2021/12/19 02:09:13;;;;;;;4.40;2.25;;;;;;;;;;5082594;28;20028;-83
2021/12/19 02:11:40;;;;;;;4.90;1.50;;;;;;;;;;5077136;28;20028;-83
2021/12/19 02:14:07;;;;;;;3.55;1.70;;;;;;;;;;5082985;28;20488;-82
2021/12/19 02:16:33;;;;;;;4.75;2.05;;;;;;;;;;5089060;28;20065;-83
2021/12/19 02:19:00;;;;;;;6.43;2.22;;;;;;;;;;5082205;28;20059;-82
2021/12/19 02:21:26;;;;;;;5.10;2.10;;;;;;;;;;5074858;28;20035;-81
2021/12/19 02:23:52;;;;;;;7.32;2.38;;;;;;;;;;5077834;28;20024;-82
2021/12/19 02:26:18;;;;;;;7.63;2.15;;;;;;;;;;5071099;28;20032;-82
2021/12/19 02:28:44;;;;;;;4.30;2.35;;;;;;;;;;5081557;28;20035;-82
2021/12/19 02:31:10;;;;;;;2.72;1.65;;;;;;;;;;5075965;28;20544;-83
2021/12/19 02:33:41;;;;;;;5.63;1.70;;;;;;;;;;5076818;28;20039;-82
2021/12/19 02:49:19;;;;;;;5.03;2.38;;;;;;;;;;5077896;28;20427;-82
2021/12/19 02:51:46;;;;;;;7.65;2.28;;;;;;;;;;5074739;28;20055;-82
2021/12/19 02:54:12;;;;;;;4.55;1.50;;;;;;;;;;5078962;28;20032;-82
2021/12/19 02:56:38;;;;;;;4.68;1.90;;;;;;;;;;5074943;28;20027;-82
2021/12/19 02:59:04;;;;;;;4.80;1.77;;;;;;;;;;5074185;28;20029;-82
2021/12/19 03:01:30;;;;;;;7.20;1.80;;;;;;;;;;5081312;28;20052;-82
2021/12/19 03:03:56;;;;;;;10.95;2.75;;;;;;;;;;5080645;28;20054;-82
2021/12/19 03:06:22;;;;;;;8.25;1.48;;;;;;;;;;5084115;28;20119;-83
2021/12/19 03:08:50;;;;;;;2.65;1.58;;;;;;;;;;5077232;28;20020;-83
2021/12/19 03:11:57;;;;;;;3.70;2.38;;;;;;;;;;5069737;28;20127;-82
2021/12/19 03:19:38;;;;;;;5.40;1.83;;;;;;;;;;5083343;28;20031;-82
2021/12/19 03:22:04;;;;;;;9.77;1.60;;;;;;;;;;5081453;28;20044;-82
2021/12/19 03:24:30;;;;;;;3.95;1.92;;;;;;;;;;5086360;28;20028;-83
2021/12/19 03:26:56;;;;;;;6.32;2.42;;;;;;;;;;5078703;28;20028;-82
2021/12/19 03:29:22;;;;;;;5.15;2.40;;;;;;;;;;5082408;28;20492;-82
2021/12/19 03:31:48;;;;;;;6.07;1.80;;;;;;;;;;5084364;28;20052;-82
2021/12/19 03:34:14;;;;;;;7.25;2.38;;;;;;;;;;5080111;28;20079;-82
2021/12/19 03:36:40;;;;;;;6.45;2.45;;;;;;;;;;5084046;28;20475;-82
2021/12/19 03:39:14;;;;;;;5.10;2.35;;;;;;;;;;5081006;28;20107;-82
2021/12/19 03:41:41;;;;;;;7.35;1.55;;;;;;;;;;5074384;28;20040;-82
2021/12/19 03:44:07;;;;;;;5.20;1.77;;;;;;;;;;5082381;28;20032;-82
2021/12/19 03:46:35;;;;;;;3.88;1.88;;;;;;;;;;5087442;28;20110;-82
2021/12/19 03:49:01;;;;;;;4.63;1.52;;;;;;;;;;5086152;28;20020;-82
2021/12/19 03:51:27;;;;;;;3.28;1.35;;;;;;;;;;5083015;28;20038;-82
2021/12/19 03:53:53;;;;;;;4.97;2.30;;;;;;;;;;5083076;28;20016;-82
2021/12/19 03:56:19;;;;;;;3.92;1.73;;;;;;;;;;5084719;28;20568;-82
2021/12/19 03:58:45;;;;;;;3.28;1.60;;;;;;;;;;5090446;28;20028;-83
2021/12/19 04:01:11;;;;;;;4.10;2.10;;;;;;;;;;5077481;28;20072;-83
2021/12/19 04:03:37;;;;;;;4.57;1.63;;;;;;;;;;5085714;28;20069;-82
2021/12/19 04:06:04;;;;;;;2.38;1.17;;;3.80;99.90;;;;;;5082456;28;20032;-82
2021/12/19 04:08:30;;;;;;;3.65;1.60;;;;;;;;;;5085624;28;20032;-81
2021/12/19 04:10:56;;;;;;;4.90;2.25;;;;;;;;;;5083199;28;20032;-82
2021/12/19 04:13:23;;;;;;;3.13;1.48;;;;;;;;;;5082535;28;20107;-82
2021/12/19 04:15:49;;;;;;;2.75;0.88;;;;;;;;;;5080266;28;20043;-82
2021/12/19 04:18:15;;;;;;;6.53;2.20;;;;;;;;;;5084084;28;20030;-82
2021/12/19 04:20:41;;;;;;;1.92;1.40;;;;;;;;;;5078925;28;20032;-82
2021/12/19 04:23:07;;;;;;;4.57;1.25;;;;;;;;;;5071661;28;20052;-82
2021/12/19 04:25:34;;;;;;;3.72;1.08;;;;;;;;;;5081277;28;20027;-82
2021/12/19 04:28:00;;;;;;;3.30;1.00;;;;;;;;;;5078073;28;20112;-82
2021/12/19 04:30:26;;;;;;;2.85;0.80;;;;;;;;;;5080258;28;20028;-83
2021/12/19 04:33:02;;;;;;;3.08;1.08;;;;;;;;;;5081367;28;20035;-82
2021/12/19 04:35:32;;;;;;;4.22;1.35;;;3.70;99.90;;;;;;5081967;28;20599;-82
2021/12/19 04:54:31;;;;;;;2.03;0.70;;;;;;;;;;5080465;28;20499;-82
2021/12/19 05:15:24;;;;;;;4.85;1.05;;;;;;;;;;5086781;28;20031;-83
2021/12/19 05:17:52;;;;;;;1.88;1.17;;;;;;;;;;5080310;28;20081;-83
2021/12/19 05:20:22;;;;;;;3.08;1.02;;;;;;;;;;5085900;28;20430;-82
2021/12/19 05:22:50;;;;;;;1.98;0.75;;;;;;;;;;5080985;28;20028;-83
2021/12/19 05:25:18;;;;;;;4.88;1.55;;;;;;;;;;5087579;28;20107;-82
2021/12/19 05:27:55;;;;;;;4.13;1.83;;;;;;;;;;5070483;28;20117;-82
2021/12/19 05:30:21;;;;;;;2.85;1.10;;;;;;;;;;5081305;28;20028;-83
2021/12/19 05:32:49;;;;;;;3.10;1.25;;;3.80;99.90;;;;;;5082924;28;20028;-83
2021/12/19 05:35:21;;;;;;;3.53;1.40;;;;;;;;;;5079630;28;20031;-82
2021/12/19 05:46:01;;;;;;;6.28;1.58;;;;;;;;;;5078258;28;20546;-83
2021/12/19 05:48:27;;;;;;;3.38;1.20;;;;;;;;;;5082716;28;20028;-82
2021/12/19 05:50:53;;;;;;;3.15;1.00;;;;;;;;;;5082434;28;20029;-82
2021/12/19 05:53:19;;;;;;;5.93;1.80;;;;;;;;;;5080282;28;20028;-82
2021/12/19 05:55:45;;;;;;;3.30;0.95;;;;;;;;;;5082495;28;20036;-82
2021/12/19 05:58:11;;;;;;;6.43;1.70;;;;;;;;;;5075441;28;20028;-82
2021/12/19 06:00:37;;;;;;;2.20;0.77;;;;;;;;;;5075618;28;20290;-82
2021/12/19 06:03:03;;;;;;;3.53;1.60;;;;;;;;;;5090719;28;20491;-83
2021/12/19 06:05:29;;;;;;;3.53;0.95;;;;;;;;;;5088264;28;20028;-83
2021/12/19 06:07:55;;;;;;;5.60;1.08;;;;;;;;;;5081754;28;20031;-82
2021/12/19 06:10:22;;;;;;;2.85;0.80;;;;;;;;;;5085138;28;20387;-83
2021/12/19 06:12:48;;;;;;;2.85;1.13;;;;;;;;;;5082105;28;20103;-82
2021/12/19 06:15:14;;;;;;;4.45;1.42;;;;;;;;;;5080515;28;20389;-82
2021/12/19 06:17:42;;;;;;;4.32;1.65;;;;;;;;;;5075474;28;20105;-82
2021/12/19 06:20:10;;;;;;;5.65;1.98;;;;;;;;;;5084910;28;20039;-81
2021/12/19 06:22:36;;;;;;;3.63;1.20;;;;;;;;;;5079496;28;20028;-83
2021/12/19 06:25:02;;;;;;;2.25;1.05;;;;;;;;;;5081966;28;20055;-82
2021/12/19 06:27:28;;;;;;;5.68;1.52;;;;;;;;;;5066920;28;20043;-82
2021/12/19 06:29:54;;;;;;;3.03;1.92;;;;;;;;;;5080107;28;20473;-82
2021/12/19 06:32:20;;;;;;;4.82;1.65;;;;;;;;;;5084996;28;20373;-83
2021/12/19 06:34:46;;;;;;;4.18;1.83;;;;;;;;;;5078338;28;20023;-81
2021/12/19 06:37:12;;;;;;;4.82;1.88;;;;;;;;;;5077060;28;20024;-83
2021/12/19 06:39:38;;;;;;;9.13;2.45;;;;;;;;;;5074078;28;20063;-82
2021/12/19 06:42:06;;;;;;;7.40;2.45;;;;;;;;;;5075384;28;20040;-83
2021/12/19 06:44:32;;;;;;;4.22;1.65;;;;;;;;;;5086034;28;20062;-82
2021/12/19 06:46:58;;;;;;;5.13;1.92;;;;;;;;;;5079582;28;20017;-82
2021/12/19 06:49:24;;;;;;;9.90;2.33;;;;;;;;;;5080824;28;20126;-83
2021/12/19 06:51:50;;;;;;;5.45;1.85;;;;;;;;;;5083596;28;20518;-83
2021/12/19 06:54:16;;;;;;;3.42;1.52;;;;;;;;;;5090038;28;20036;-81
2021/12/19 06:56:42;;;;;;;5.65;1.77;;;;;;;;;;5071298;28;20108;-82
2021/12/19 06:59:08;;;;;;;3.17;1.58;;;;;;;;;;5072063;28;20484;-82
2021/12/19 07:01:36;;;;;;;2.72;1.58;;;;;;;;;;5081428;28;20086;-83
2021/12/19 07:04:02;;;;;;;4.35;1.92;;;;;;;;;;5078160;28;20031;-83
2021/12/19 07:06:28;;;;;;;5.53;1.65;;;;;;;;;;5080254;28;20074;-83
2021/12/19 07:08:54;;;;;;;5.57;2.95;;;;;;;;;;5083801;28;20024;-82
2021/12/19 07:11:20;;;;;;;10.88;3.30;;;;;;;;;;5082576;28;20118;-82
2021/12/19 07:13:46;;;;;;;5.53;2.33;;;;;;;;;;5070890;28;20102;-80
2021/12/19 07:16:13;;;;;;;3.55;1.75;;;;;;;;;;5068295;28;20583;-83
2021/12/19 07:18:39;;;;;;;2.63;1.42;;;;;;;;;;5070177;28;20088;-83
2021/12/19 07:21:06;;;;;;;9.55;2.72;;;;;;;;;;5072378;28;20051;-82
2021/12/19 07:23:32;;;;;;;4.28;2.30;;;;;;;;;;5081367;28;20035;-82
2021/12/19 07:25:58;;;;;;;3.80;2.55;;;;;;;;;;5072312;28;20047;-83
2021/12/19 07:28:24;;;;;;;5.50;2.22;;;;;;;;;;5071806;28;20060;-82
2021/12/19 07:30:50;;;;;;;10.55;2.67;;;;;;;;;;5077769;28;20055;-83
2021/12/19 07:33:18;;;;;;;21.20;8.43;;;;;;;;;;5077554;28;20035;-83
2021/12/19 07:35:47;;;;;;;10.23;3.83;;;;;;;;;;5073887;28;20090;-81
2021/12/19 07:38:18;;;;;;;2.92;2.13;;;;;;;;;;5079854;28;20884;-82
2021/12/19 07:40:46;;;;;;;5.00;1.48;;;;;;;;;;5078822;28;20044;-82
2021/12/19 07:43:12;;;;;;;3.95;2.45;;;;;;;;;;5074448;28;20034;-83
2021/12/19 07:45:38;;;;;;;3.83;1.90;;;;;;;;;;5068342;28;20025;-82
2021/12/19 07:48:05;;;;;;;4.25;1.73;;;;;;;;;;5071525;28;20025;-82
2021/12/19 07:50:32;;;;;;;10.07;3.47;;;3.90;99.90;;;;;;5081239;28;20020;-82
2021/12/19 07:52:58;;;;;;;5.25;2.83;;;;;;;;;;5078009;28;20541;-81
2021/12/19 07:55:25;;;;;;;6.07;3.00;;;;;;;;;;5063098;28;21097;-80
2021/12/19 07:57:51;;;;;;;31.92;9.25;;;4.00;99.90;;;;;;5078439;28;20021;-82
2021/12/19 08:00:19;;;;;;;17.80;5.90;;;;;;;;;;5069276;28;20122;-82
2021/12/19 08:02:45;;;;;;;13.25;4.38;;;;;;;;;;5074223;28;20024;-81
2021/12/19 08:05:12;;;;;;;12.52;5.03;;;;;;;;;;5083554;28;20032;-82
2021/12/19 08:07:40;;;;;;;7.97;2.00;;;;;;;;;;5076713;28;20078;-82
2021/12/19 08:12:45;;;;;;;4.82;2.40;;;;;;;;;;5078900;28;20093;-81
2021/12/19 08:15:12;;;;;;;6.50;2.88;;;;;;;;;;5091960;28;20468;-81
2021/12/19 08:17:38;;;;;;;4.18;2.00;;;;;;;;;;5085703;28;20024;-81
2021/12/19 08:20:06;;;;;;;5.70;2.38;;;3.90;99.90;;;;;;5079844;28;20028;-81
2021/12/19 08:22:33;;;;;;;4.68;1.88;;;;;;;;;;5084258;28;20036;-81
2021/12/19 08:24:59;;;;;;;5.25;1.80;;;;;;;;;;5084294;28;20480;-81
2021/12/19 08:27:26;;;;;;;2.95;1.95;;;;;;;;;;5081732;28;20024;-81
2021/12/19 08:29:54;;;;;;;3.80;1.23;;;;;;;;;;5082052;28;20016;-81
2021/12/19 08:32:20;;;;;;;4.63;1.95;;;;;;;;;;5081528;28;20030;-82
2021/12/19 08:34:46;;;;;;;4.03;1.85;;;;;;;;;;5079208;28;20135;-80
2021/12/19 08:37:12;;;;;;;3.88;1.70;;;;;;;;;;5078626;28;20460;-82
2021/12/19 08:39:41;;;;;;;3.58;1.63;;;;;;;;;;5078191;28;20024;-82
2021/12/19 08:42:07;;;;;;;2.72;1.60;;;;;;;;;;5080471;28;20050;-82
2021/12/19 08:44:33;;;;;;;4.75;1.77;;;;;;;;;;5088505;28;20020;-82
2021/12/19 08:46:59;;;;;;;5.88;2.42;;;;;;;;;;5088972;28;20115;-80
2021/12/19 08:49:25;;;;;;;8.88;1.92;;;;;;;;;;5079968;28;20078;-81
2021/12/19 08:51:51;;;;;;;3.10;1.45;;;;;;;;;;5089827;28;20021;-83
2021/12/19 08:54:17;;;;;;;3.38;1.38;;;;;;;;;;5075133;28;20035;-82
2021/12/19 08:56:43;;;;;;;2.15;1.48;;;;;;;;;;5082882;28;20066;-82
2021/12/19 08:59:09;;;;;;;4.13;1.85;;;;;;;;;;5088444;28;20032;-80
2021/12/19 09:01:36;;;;;;;2.58;1.27;;;;;;;;;;5094647;28;20435;-80
2021/12/19 09:04:02;;;;;;;4.60;1.67;;;;;;;;;;5079858;28;20031;-81
2021/12/19 09:06:28;;;;;;;3.83;1.05;;;;;;;;;;5091736;28;20271;-81
2021/12/19 09:08:54;;;;;;;3.85;1.52;;;;;;;;;;5073637;28;20020;-82
2021/12/19 09:11:20;;;;;;;4.32;1.73;;;;;;;;;;5077113;28;20060;-82
2021/12/19 09:13:46;;;;;;;2.63;1.52;;;;;;;;;;5083741;28;20097;-81
2021/12/19 09:16:12;;;;;;;3.63;1.80;;;;;;;;;;5077282;28;20075;-81
2021/12/19 09:18:38;;;;;;;4.72;1.67;;;;;;;;;;5077020;28;20023;-81
2021/12/19 09:21:04;;;;;;;3.38;1.52;;;;;;;;;;5073873;28;20048;-82
2021/12/19 09:23:32;;;;;;;3.80;1.02;;;;;;;;;;5081748;28;20473;-80
2021/12/19 09:25:58;;;;;;;4.95;2.40;;;;;;;;;;5086713;28;20122;-81
2021/12/19 09:28:24;;;;;;;5.57;1.52;;;;;;;;;;5075669;28;20127;-81
2021/12/19 09:30:50;;;;;;;2.20;1.15;;;;;;;;;;5090982;28;20109;-81
2021/12/19 09:33:16;;;;;;;2.92;1.00;;;;;;;;;;5087261;28;20055;-82
2021/12/19 09:35:42;;;;;;;3.67;1.23;;;;;;;;;;5084325;28;20337;-80
2021/12/19 09:38:08;;;;;;;4.28;2.10;;;;;;;;;;5076071;28;20042;-82
2021/12/19 09:40:39;;;;;;;4.30;1.65;;;;;;;;;;5080787;28;20032;-82
2021/12/19 09:43:31;;;;;;;5.35;1.92;;;;;;;;;;5073963;28;20032;-82
2021/12/19 09:45:58;;;;;;;3.35;1.42;;;;;;;;;;5084328;28;20033;-82
2021/12/19 09:48:24;;;;;;;4.32;2.20;;;;;;;;;;5088208;28;20044;-81
2021/12/19 09:50:50;;;;;;;4.43;1.95;;;;;;;;;;5078779;28;20024;-82
2021/12/19 09:53:16;;;;;;;2.08;1.02;;;;;;;;;;5085229;28;20070;-80
2021/12/19 09:55:42;;;;;;;3.65;1.60;;;;;;;;;;5079964;28;20033;-83
2021/12/19 09:58:08;;;;;;;4.85;1.48;;;;;;;;;;5078342;28;20062;-82
2021/12/19 10:00:34;;;;;;;3.38;1.80;;;;;;;;;;5080828;28;20086;-81
2021/12/19 10:03:00;;;;;;;3.15;1.52;;;;;;;;;;5074631;28;20071;-82
2021/12/19 10:05:27;;;;;;;4.45;1.77;;;;;;;;;;5086176;28;20059;-81
2021/12/19 10:08:03;;;;;;;7.05;1.60;;;;;;;;;;5081284;28;20051;-81
2021/12/19 10:10:42;;;;;;;3.83;1.67;;;;;;;;;;5078829;28;20036;-81
2021/12/19 10:13:08;;;;;;;1.92;1.23;;;;;;;;;;5073049;28;20029;-81
2021/12/19 10:15:37;;;;;;;5.30;2.25;;;4.30;99.90;;;;;;5097017;28;20034;-82
2021/12/19 10:18:03;;;;;;;5.80;1.75;;;;;;;;;;5079740;28;20057;-80
2021/12/19 10:20:40;;;;;;;4.03;2.10;;;;;;;;;;5094726;28;20123;-79
2021/12/19 10:23:10;;;;;;;3.47;1.67;;;;;;;;;;5069213;28;20030;-80
2021/12/19 10:25:36;;;;;;;2.72;1.35;;;;;;;;;;5082579;28;20020;-81
2021/12/19 10:28:04;;;;;;;2.95;1.52;;;;;;;;;;5083974;28;20039;-81
2021/12/19 10:30:32;;;;;;;3.15;1.90;;;;;;;;;;5077146;28;20039;-81
2021/12/19 10:33:02;;;;;;;2.55;1.45;;;;;;;;;;5072600;28;20396;-81
2021/12/19 10:35:30;;;;;;;3.00;1.63;;;;;;;;;;5080418;28;20024;-81
2021/12/19 10:37:56;;;;;;;8.75;4.25;;;;;;;;;;5078765;28;20039;-81
2021/12/19 10:40:22;;;;;;;4.05;2.08;;;;;;;;;;5081729;28;20036;-81
2021/12/19 10:42:52;;;;;;;9.23;2.95;;;;;;;;;;5072785;28;20473;-82
2021/12/19 10:45:32;;;;;;;4.75;1.80;;;;;;;;;;5070193;28;20032;-81
2021/12/19 10:48:10;;;;;;;3.97;1.92;;;;;;;;;;5079127;28;20126;-81
2021/12/19 10:50:42;;;;;;;3.08;1.52;;;;;;;;;;5085073;28;20031;-81
2021/12/19 10:53:08;;;;;;;5.03;1.75;;;;;;;;;;5084032;28;20047;-81
2021/12/19 10:55:34;;;;;;;5.50;1.83;;;;;;;;;;5088131;28;20493;-81
2021/12/19 10:58:00;;;;;;;6.45;3.28;;;;;;;;;;5081470;28;20145;-79
2021/12/19 11:00:27;;;;;;;7.97;3.42;;;;;;;;;;5074424;28;20203;-80
2021/12/19 11:02:53;;;;;;;5.22;3.00;;;;;;;;;;5074912;28;20025;-80
2021/12/19 11:05:40;;;;;;;9.77;4.78;;;;;;;;;;5065348;28;20070;-80
2021/12/19 11:08:08;;;;;;;5.93;3.28;;;;;;;;;;5083026;28;20119;-80
2021/12/19 11:10:34;;;;;;;8.85;2.85;;;;;;;;;;5070931;28;20099;-80
2021/12/19 11:13:11;;;;;;;7.70;3.20;;;;;;;;;;5080229;28;20109;-79
2021/12/19 11:15:37;;;;;;;5.65;2.53;;;;;;;;;;5070963;28;20032;-78
2021/12/19 11:18:03;;;;;;;7.40;3.47;;;;;;;;;;5073396;28;20107;-82
2021/12/19 11:20:29;;;;;;;7.43;3.58;;;;;;;;;;5073863;28;20112;-80
2021/12/19 11:22:55;;;;;;;6.05;2.78;;;;;;;;;;5073951;28;20042;-81
2021/12/19 11:25:21;;;;;;;8.10;4.20;;;;;;;;;;5075482;28;20024;-81
2021/12/19 11:27:48;;;;;;;5.57;3.20;;;;;;;;;;5072724;28;20508;-82
2021/12/19 11:30:18;;;;;;;9.98;3.35;;;;;;;;;;5076604;28;20442;-81
2021/12/19 11:32:50;;;;;;;11.27;3.92;;;;;;;;;;5073138;28;20028;-82
2021/12/19 11:35:23;;;;;;;11.98;4.43;;;;;;;;;;5068274;28;20031;-81
2021/12/19 11:37:54;;;;;;;7.32;2.78;;;;;;;;;;5069276;28;20553;-79
2021/12/19 11:40:21;;;;;;;7.07;3.25;;;;;;;;;;5078934;28;20025;-79
2021/12/19 11:42:47;;;;;;;5.60;3.13;;;;;;;;;;5086466;28;20040;-79
2021/12/19 11:48:08;;;;;;;9.07;3.75;;;;;;;;;;5073156;28;21144;-82
2021/12/19 11:50:46;;;;;;;24.85;9.30;;;;;;;;;;5072344;28;20028;-80
2021/12/19 11:53:12;;;;;;;52.30;22.90;;;;;;;;;;5076117;28;20028;-81
2021/12/19 11:55:39;;;;;;;23.17;8.98;;;;;;;;;;5089188;28;20020;-80
2021/12/19 11:58:08;;;;;;;9.57;3.97;;;;;;;;;;5076267;28;20028;-80
2021/12/19 12:00:38;;;;;;;7.95;3.90;;;4.80;99.90;;;;;;5090682;28;20031;-82
2021/12/19 12:03:13;;;;;;;6.68;3.20;;;;;;;;;;5081495;28;20114;-80
2021/12/19 12:05:39;;;;;;;10.38;5.10;;;;;;;;;;5082352;28;20126;-81
2021/12/19 12:08:05;;;;;;;13.38;5.40;;;;;;;;;;5077234;28;20056;-82
2021/12/19 12:10:54;;;;;;;13.13;4.88;;;;;;;;;;5083907;28;20028;-82
2021/12/19 12:13:28;;;;;;;12.63;4.57;;;;;;;;;;5086925;28;20036;-83
2021/12/19 12:16:09;;;;;;;11.48;4.80;;;4.30;99.90;;;;;;5085735;28;20028;-81
2021/12/19 12:18:37;;;;;;;6.55;3.60;;;;;;;;;;5083084;28;20066;-81
2021/12/19 12:21:46;;;;;;;11.50;5.18;;;;;;;;;;5085571;28;20096;-80
2021/12/19 12:24:16;;;;;;;6.93;3.97;;;;;;;;;;5070726;28;20679;-80
2021/12/19 12:26:51;;;;;;;11.32;4.72;;;;;;;;;;5079137;28;20036;-81
2021/12/19 12:29:17;;;;;;;7.45;3.58;;;;;;;;;;5080649;28;20032;-82
2021/12/19 12:31:45;;;;;;;11.35;4.30;;;4.30;99.90;;;;;;5069868;28;20033;-81
2021/12/19 12:34:12;;;;;;;12.27;4.65;;;;;;;;;;5088627;28;20028;-81
2021/12/19 12:36:39;;;;;;;17.33;4.60;;;;;;;;;;5083301;28;20020;-82
2021/12/19 12:39:09;;;;;;;8.90;4.32;;;;;;;;;;5082985;28;20028;-83
2021/12/19 12:44:05;;;;;;;11.15;3.50;;;;;;;;;;5083154;28;20404;-81
2021/12/19 12:46:32;;;;;;;15.07;5.57;;;;;;;;;;5073083;28;20178;-80
2021/12/19 12:49:08;;;;;;;10.75;5.22;;;;;;;;;;5081706;28;20028;-81
2021/12/19 12:51:35;;;;;;;12.13;4.95;;;;;;;;;;5082376;28;20184;-82
2021/12/19 12:54:05;;;;;;;11.82;5.20;;;4.40;99.90;;;;;;5089840;28;20024;-81
2021/12/19 12:56:35;;;;;;;12.18;4.80;;;;;;;;;;5089187;28;20110;-80
2021/12/19 12:59:02;;;;;;;11.82;6.00;;;;;;;;;;5093485;28;20058;-81
2021/12/19 13:01:30;;;;;;;14.68;5.05;;;;;;;;;;5094790;28;20070;-79
2021/12/19 13:04:02;;;;;;;14.57;4.53;;;;;;;;;;5079635;28;20028;-81
2021/12/19 13:06:46;;;;;;;12.40;4.88;;;;;;;;;;5083257;28;20040;-82
2021/12/19 13:09:17;;;;;;;8.98;4.47;;;;;;;;;;5084395;28;20028;-82
2021/12/19 13:11:43;;;;;;;16.73;5.80;;;;;;;;;;5068339;28;20017;-82
2021/12/19 13:14:14;;;;;;;12.60;5.22;;;;;;;;;;5073172;28;20039;-83
2021/12/19 13:16:51;;;;;;;10.90;3.63;;;;;;;;;;5074470;28;20057;-82
2021/12/19 13:19:43;;;;;;;12.88;4.75;;;;;;;;;;5074679;28;20090;-82
2021/12/19 13:22:11;;;;;;;12.23;5.40;;;;;;;;;;5079356;28;20049;-81
2021/12/19 13:24:37;;;;;;;10.60;4.43;;;;;;;;;;5079381;28;20017;-81
2021/12/19 13:27:05;;;;;;;10.52;5.10;;;;;;;;;;5081586;28;20055;-81
2021/12/19 13:29:31;;;;;;;13.95;5.15;;;;;;;;;;5076885;28;20289;-82
2021/12/19 13:32:33;;;;;;;13.00;5.68;;;4.30;99.90;;;;;;5077738;28;20074;-82
2021/12/19 13:35:01;;;;;;;13.73;4.68;;;;;;;;;;5032408;28;20044;-81
2021/12/19 13:37:31;;;;;;;10.15;5.10;;;;;;;;;;5095078;28;20032;-79
2021/12/19 13:40:17;;;;;;;10.82;4.18;;;;;;;;;;5087860;28;20050;-81
2021/12/19 13:42:48;;;;;;;13.13;4.78;;;;;;;;;;5080244;28;20072;-80
2021/12/19 13:45:21;;;;;;;12.27;4.82;;;;;;;;;;5079934;28;20028;-82
2021/12/19 13:47:47;;;;;;;11.68;5.43;;;;;;;;;;5081408;28;20028;-80
2021/12/19 13:50:14;;;;;;;9.07;3.78;;;;;;;;;;5080125;28;20039;-80
2021/12/19 13:52:40;;;;;;;8.32;4.20;;;;;;;;;;5071345;28;20037;-81
2021/12/19 13:55:07;;;;;;;10.70;4.68;;;4.30;99.90;;;;;;5073718;28;20033;-80
2021/12/19 13:57:33;;;;;;;12.27;4.45;;;;;;;;;;5072349;28;20031;-81
2021/12/19 13:59:59;;;;;;;13.77;4.88;;;;;;;;;;5069627;28;20518;-82
2021/12/19 14:02:25;;;;;;;12.65;5.80;;;;;;;;;;5075566;28;20578;-80
2021/12/19 14:04:51;;;;;;;11.80;5.00;;;;;;;;;;5081102;28;20033;-81
2021/12/19 14:07:20;;;;;;;14.05;4.78;;;;;;;;;;5086012;28;20039;-82
2021/12/19 14:09:46;;;;;;;19.02;6.00;;;;;;;;;;5087259;28;20039;-81
2021/12/19 14:12:26;;;;;;;10.02;4.53;;;;;;;;;;5071586;28;20028;-80
2021/12/19 14:14:52;;;;;;;12.80;5.13;;;;;;;;;;5077848;28;20033;-81
2021/12/19 14:17:18;;;;;;;20.23;5.70;;;;;;;;;;5080357;28;20035;-80
2021/12/19 14:19:52;;;;;;;9.32;4.22;;;;;;;;;;5080416;28;20070;-82
2021/12/19 14:22:19;;;;;;;17.58;6.45;;;;;;;;;;5077271;28;20050;-81
2021/12/19 14:24:54;;;;;;;10.13;4.75;;;4.30;99.90;;;;;;5076285;28;20020;-81
2021/12/19 14:27:24;;;;;;;13.20;5.32;;;;;;;;;;5073990;28;20115;-79
2021/12/19 14:29:51;;;;;;;16.77;5.53;;;;;;;;;;5078553;28;20035;-80
2021/12/19 14:32:20;;;;;;;14.18;5.53;;;;;;;;;;5081167;28;20035;-80
2021/12/19 14:34:50;;;;;;;16.33;6.20;;;;;;;;;;5075392;28;20035;-80
2021/12/19 14:37:19;;;;;;;13.88;6.00;;;;;;;;;;5081179;28;20054;-80
2021/12/19 14:40:01;;;;;;;10.85;4.65;;;;;;;;;;5087155;28;20024;-78
2021/12/19 14:42:35;;;;;;;16.08;4.70;;;;;;;;;;5086941;28;20037;-78
2021/12/19 14:45:01;;;;;;;12.55;5.63;;;;;;;;;;5083530;28;20480;-80
2021/12/19 14:47:41;;;;;;;15.93;6.25;;;;;;;;;;5085336;28;20024;-81
2021/12/19 14:50:12;;;;;;;15.88;5.15;;;;;;;;;;5083411;28;20024;-80
2021/12/19 14:52:38;;;;;;;11.38;4.80;;;;;;;;;;5080525;28;20028;-80
2021/12/19 14:55:08;;;;;;;14.00;5.82;;;;;;;;;;5086190;28;20253;-80
2021/12/19 14:57:34;;;;;;;16.70;6.60;;;;;;;;;;5078909;28;20024;-80
2021/12/19 15:00:00;;;;;;;14.52;6.50;;;;;;;;;;5086520;28;20420;-79
2021/12/19 15:02:26;;;;;;;10.88;5.15;;;;;;;;;;5077854;28;20047;-80
2021/12/19 15:04:52;;;;;;;11.10;5.47;;;;;;;;;;5080076;28;20032;-80
2021/12/19 15:07:22;;;;;;;13.48;4.68;;;;;;;;;;5077455;28;20032;-81
2021/12/19 15:09:48;;;;;;;23.42;6.90;;;;;;;;;;5076476;28;20031;-79
2021/12/19 15:12:14;;;;;;;15.65;5.50;;;;;;;;;;5068226;28;20372;-81
2021/12/19 15:14:40;;;;;;;15.77;5.85;;;;;;;;;;5081046;28;20161;-82
2021/12/19 15:17:06;;;;;;;16.65;5.70;;;;;;;;;;5081126;28;20028;-81
2021/12/19 15:19:32;;;;;;;19.23;7.32;;;;;;;;;;5076709;28;20038;-81
2021/12/19 15:21:58;;;;;;;12.95;6.00;;;;;;;;;;5070865;28;20032;-81
2021/12/19 15:24:24;;;;;;;21.40;8.10;;;;;;;;;;5074155;28;20036;-81
2021/12/19 15:26:50;;;;;;;13.90;5.55;;;;;;;;;;5076368;28;20024;-81
2021/12/19 15:29:16;;;;;;;15.32;6.03;;;;;;;;;;5073338;28;20033;-82
2021/12/19 15:31:42;;;;;;;17.17;6.85;;;;;;;;;;5079978;28;20054;-81
2021/12/19 15:34:08;;;;;;;17.08;7.07;;;;;;;;;;5076409;28;20044;-80
2021/12/19 15:36:35;;;;;;;16.15;6.30;;;;;;;;;;5070495;28;20071;-80
2021/12/19 15:39:01;;;;;;;19.15;8.27;;;;;;;;;;5078454;28;20400;-81
2021/12/19 15:41:27;;;;;;;25.55;8.68;;;;;;;;;;5080189;28;20032;-81
2021/12/19 15:43:53;;;;;;;14.80;6.20;;;;;;;;;;5073822;28;20024;-80
2021/12/19 15:46:20;;;;;;;14.45;5.65;;;;;;;;;;5078478;28;20039;-81
2021/12/19 15:48:46;;;;;;;18.63;7.07;;;;;;;;;;5077570;28;20062;-81
2021/12/19 15:51:13;;;;;;;18.08;5.70;;;;;;;;;;5077197;28;20040;-81
2021/12/19 15:53:39;;;;;;;26.35;8.43;;;;;;;;;;5080614;28;20027;-80